Portada
METAR-TAF:

METAR-TAF

Aeroports :

Aeroport Internacional Maiquetía Simón Bolívar

Caracas, Veneçuela

latitud: 10-36N, longitud: 066-59W, altitud: 43 m

Observació

L'informe es va fer fa 1 hora i 0 minuts, a les 11:02 UTC
Vent 5 kt del Est
Temperatura
Pressió 1013 hPa

METAR: SVMI 041102Z AUTO 08005KT NCD ///// Q1013

Hora: 08:02 (12:02 UTC)

Pronòstic

L'informe es va fer fa 2 hores i 2 minuts, a les 10:00 UTC
Pronòstic vàlid del 04 a les 12 UTC al 05 a les 12 UTC
Vent kt del Nord
Visibilitat 10 km o més
Escasses núvols a una alçada de 1600 ft
Temporalment
l' 04 a les 16 UTC al 04 a les 22 UTC
Vent 8 kt del Est
Núvols disperses a una alçada de 1600 ft
A partir de les 04 a les 2300 UTC
Vent 4 kt del Est/Nord-Est
Visibilitat 10 km o més
Escasses núvols a una alçada de 1600 ft

TAF: SVMI 041000Z 0412/0512 00000KT 9999 FEW016 TX34/18Z TN24/08Z TEMPO 0416/0422 09008KT SCT016 FM042300 07004KT 9999 FEW016

Observacions i pronòstics meteorològics de més de 4000 aeroports (METAR i TAF).

Les estacions disponibles són els punts grocs i vermells al mapa.

Posi el ratolí al punt desitjat per veure el nom de l'estació.

Feu clic per veure les observacions i els pronòstics meteorològics.

Per canviar el mapa: feu clic els botons verds amb una creu de color negre per apropar; al botó verd amb un guió per allunyar la imatge; o en les fletxes verdes per a mapes adjacents.


METAR-TAF: